This is the latest recevied weather packets stored in our database for station/object EA7URS-13. If no packets are shown the sender has not sent any weather packets the latest 10 day(s).
| Time | Temp. | Humidity | Pressure | Rain* | Wind** | Luminosity | Snow |
|---|---|---|---|---|---|---|---|
| 1788264542 | 31.67° C | 32% | 1009.8 hPa | 0 mm | - | 653 W/m² | - |
| 1788264241 | 31.11° C | 33% | 1010.2 hPa | 0 mm | - | 652 W/m² | - |
| 1788263940 | 31.11° C | 33% | 1010.2 hPa | 0 mm | - | 652 W/m² | - |
| 1788263639 | 30.56° C | 33% | 1010.2 hPa | 0 mm | - | 647 W/m² | - |
| 1788263338 | 30.56° C | 33% | 1010.2 hPa | 0 mm | - | 647 W/m² | - |
| 1788263037 | 30.56° C | 33% | 1010.3 hPa | 0 mm | - | 109 W/m² | - |
| 1788262736 | 30.56° C | 33% | 1010.3 hPa | 0 mm | - | 109 W/m² | - |
| 1788262435 | 30.56° C | 32% | 1010.4 hPa | 0 mm | - | 632 W/m² | - |
| 1788262134 | 30.56° C | 32% | 1010.4 hPa | 0 mm | - | 632 W/m² | - |
| 1788261832 | 30.56° C | 32% | 1010.2 hPa | 0 mm | - | 157 W/m² | - |
| 1788261531 | 30.56° C | 32% | 1010.2 hPa | 0 mm | - | 157 W/m² | - |
| 1788261230 | 30° C | 34% | 1010.3 hPa | 0 mm | - | 513 W/m² | - |
| 1788260929 | 30° C | 34% | 1010.3 hPa | 0 mm | - | 513 W/m² | - |
| 1788260628 | 30° C | 33% | 1010.6 hPa | 0 mm | - | 238 W/m² | - |
| 1788260327 | 30° C | 33% | 1010.6 hPa | 0 mm | - | 238 W/m² | - |
| 1788260026 | 29.44° C | 33% | 1010.8 hPa | 0 mm | - | 159 W/m² | - |
| 1788259725 | 29.44° C | 33% | 1010.8 hPa | 0 mm | - | 159 W/m² | - |
| 1788259424 | 29.44° C | 33% | 1010.6 hPa | 0 mm | - | 116 W/m² | - |
| 1788259123 | 29.44° C | 33% | 1010.6 hPa | 0 mm | - | 116 W/m² | - |
| 1788258821 | 30° C | 32% | 1010.5 hPa | 0 mm | - | 562 W/m² | - |
| 1788258520 | 30° C | 32% | 1010.5 hPa | 0 mm | - | 562 W/m² | - |
| 1788258219 | 28.89° C | 34% | 1010.7 hPa | 0 mm | - | 547 W/m² | - |
| 1788257918 | 28.89° C | 34% | 1010.7 hPa | 0 mm | - | 547 W/m² | - |
| 1788257617 | 29.44° C | 34% | 1010.6 hPa | 0 mm | - | 524 W/m² | - |
| 1788257316 | 29.44° C | 34% | 1010.6 hPa | 0 mm | - | 524 W/m² | - |
* Rain latest hour (hover to see other rain measurements)
** Current wind speed in m/s (hover to see current wind gust speed)